createdAt,value
2018-11-06T00:00:06.078Z,11.60
2018-11-06T00:02:39.528Z,11.60
2018-11-06T00:05:15.389Z,11.50
2018-11-06T00:07:48.688Z,11.50
2018-11-06T00:10:21.981Z,11.50
2018-11-06T00:12:55.187Z,11.50
2018-11-06T00:15:28.760Z,11.50
2018-11-06T00:18:03.702Z,11.50
2018-11-06T00:20:37.381Z,11.40
2018-11-06T00:23:11.007Z,11.40
2018-11-06T00:25:45.176Z,11.40
2018-11-06T00:28:19.206Z,11.40
2018-11-06T00:30:52.772Z,11.40
2018-11-06T00:33:26.480Z,11.40
2018-11-06T00:35:59.770Z,11.40
2018-11-06T00:38:35.209Z,11.40
2018-11-06T00:41:11.337Z,11.50
2018-11-06T00:43:45.558Z,11.40
2018-11-06T00:46:19.560Z,11.40
2018-11-06T00:48:53.322Z,11.40
2018-11-06T00:51:27.847Z,11.40
2018-11-06T00:54:01.279Z,11.30
2018-11-06T00:56:34.476Z,11.30
2018-11-06T00:59:10.117Z,11.30
2018-11-06T01:01:43.898Z,11.20
2018-11-06T01:04:18.656Z,11.20
2018-11-06T01:06:52.050Z,11.20
2018-11-06T01:09:26.059Z,11.20
2018-11-06T01:11:59.226Z,11.20
2018-11-06T01:14:32.895Z,11.20
2018-11-06T01:17:08.007Z,11.10
2018-11-06T01:19:42.456Z,11.10
2018-11-06T01:22:20.669Z,11.10
2018-11-06T01:24:56.321Z,11.20
2018-11-06T01:27:30.023Z,11.20
2018-11-06T01:30:05.074Z,11.20
2018-11-06T01:32:42.508Z,11.20
2018-11-06T01:35:21.815Z,11.20
2018-11-06T01:37:55.093Z,11.20
2018-11-06T01:40:31.253Z,11.20
2018-11-06T01:43:06.176Z,11.10
2018-11-06T01:45:39.800Z,11.00
2018-11-06T01:48:15.735Z,11.00
2018-11-06T01:50:49.198Z,10.90
2018-11-06T01:53:22.784Z,10.80
2018-11-06T01:55:56.072Z,10.80
2018-11-06T01:58:29.402Z,10.70
2018-11-06T02:01:02.588Z,10.70
2018-11-06T02:03:36.543Z,10.70
2018-11-06T02:06:09.826Z,10.70
2018-11-06T02:08:43.568Z,10.70
2018-11-06T02:11:16.861Z,10.60
2018-11-06T02:13:50.263Z,10.60
2018-11-06T02:16:25.622Z,10.60
2018-11-06T02:18:59.752Z,10.60
2018-11-06T02:21:33.265Z,10.60
2018-11-06T02:24:06.644Z,10.60
2018-11-06T02:26:40.433Z,10.60
2018-11-06T02:29:14.708Z,10.50
2018-11-06T02:31:48.286Z,10.50
2018-11-06T02:34:22.385Z,10.50
2018-11-06T02:36:55.665Z,10.50
2018-11-06T02:39:29.596Z,10.50
2018-11-06T02:42:03.172Z,10.50
2018-11-06T02:44:39.756Z,10.50
2018-11-06T02:47:14.133Z,10.50
2018-11-06T02:49:47.444Z,10.50
2018-11-06T02:52:25.682Z,10.40
2018-11-06T02:54:59.156Z,10.30
2018-11-06T02:57:32.261Z,10.30
2018-11-06T03:00:07.194Z,10.20
2018-11-06T03:02:40.157Z,10.20
2018-11-06T03:05:13.349Z,10.20
2018-11-06T03:07:46.172Z,10.20
2018-11-06T03:10:19.354Z,10.10
2018-11-06T03:12:52.304Z,10.10
2018-11-06T03:15:25.709Z,10.10
2018-11-06T03:17:59.094Z,10.00
2018-11-06T03:20:32.698Z,10.00
2018-11-06T03:23:09.702Z,10.00
2018-11-06T03:25:44.842Z,10.00
2018-11-06T03:28:17.848Z,10.00
2018-11-06T03:30:51.663Z,9.90
2018-11-06T03:33:25.388Z,9.90
2018-11-06T03:36:08.347Z,9.90
2018-11-06T03:39:19.932Z,9.80
2018-11-06T03:42:20.479Z,9.80
2018-11-06T03:44:57.525Z,9.70
2018-11-06T03:47:43.501Z,9.70
2018-11-06T03:50:24.410Z,9.70
2018-11-06T03:56:04.324Z,9.70
2018-11-06T03:58:38.660Z,9.70
2018-11-06T04:01:13.896Z,9.70
2018-11-06T04:03:46.839Z,9.60
2018-11-06T04:06:19.875Z,9.60
2018-11-06T04:08:56.848Z,9.60
2018-11-06T04:11:30.346Z,9.60
2018-11-06T04:14:04.369Z,9.50
2018-11-06T04:16:39.641Z,9.50
2018-11-06T04:19:14.521Z,9.50
2018-11-06T04:21:48.631Z,9.50
2018-11-06T04:24:22.881Z,9.50
2018-11-06T04:26:56.974Z,9.50
2018-11-06T04:29:31.156Z,9.60
2018-11-06T04:32:06.144Z,9.60
2018-11-06T04:34:39.414Z,9.70
2018-11-06T04:37:12.593Z,9.70
2018-11-06T04:39:46.119Z,9.70
2018-11-06T04:42:20.860Z,9.70
2018-11-06T04:44:54.304Z,9.70
2018-11-06T04:47:28.644Z,9.70
2018-11-06T04:50:01.911Z,9.70
2018-11-06T04:52:35.281Z,9.70
2018-11-06T04:55:09.075Z,9.70
2018-11-06T04:57:43.884Z,9.60
2018-11-06T05:00:18.658Z,9.70
2018-11-06T05:02:52.088Z,9.70
2018-11-06T05:05:27.940Z,9.70
2018-11-06T05:08:03.665Z,9.70
2018-11-06T05:10:38.067Z,9.70
2018-11-06T05:13:11.682Z,9.70
2018-11-06T05:15:45.083Z,9.70
2018-11-06T05:18:18.752Z,9.70
2018-11-06T05:20:53.809Z,9.70
2018-11-06T05:23:27.606Z,9.70
2018-11-06T05:26:01.513Z,9.60
2018-11-06T05:28:34.979Z,9.60
2018-11-06T05:31:12.144Z,9.50
2018-11-06T05:33:46.434Z,9.40
2018-11-06T05:36:19.870Z,9.40
2018-11-06T05:38:53.628Z,9.30
2018-11-06T05:41:27.032Z,9.30
2018-11-06T05:44:01.303Z,9.30
2018-11-06T05:46:36.076Z,9.30
2018-11-06T05:49:10.006Z,9.30
2018-11-06T05:51:44.173Z,9.30
2018-11-06T05:54:18.307Z,9.30
2018-11-06T05:56:51.706Z,9.30
2018-11-06T05:59:25.042Z,9.30
2018-11-06T06:01:58.295Z,9.40
2018-11-06T06:04:32.572Z,9.40
2018-11-06T06:07:06.733Z,9.40
2018-11-06T06:09:41.155Z,9.40
2018-11-06T06:12:14.527Z,9.40
2018-11-06T06:14:48.257Z,9.40
2018-11-06T06:17:21.572Z,9.50
2018-11-06T06:19:55.289Z,9.50
2018-11-06T06:22:28.852Z,9.50
2018-11-06T06:25:02.409Z,9.50
2018-11-06T06:27:36.990Z,9.50
2018-11-06T06:31:43.151Z,9.50
2018-11-06T06:34:16.669Z,9.50
2018-11-06T06:36:51.203Z,9.50
2018-11-06T06:39:25.147Z,9.40
2018-11-06T06:41:59.338Z,9.40
2018-11-06T06:44:33.510Z,9.40
2018-11-06T06:47:07.895Z,9.30
2018-11-06T06:49:41.676Z,9.30
2018-11-06T06:52:15.336Z,9.30
2018-11-06T06:54:50.462Z,9.20
2018-11-06T06:57:24.183Z,9.20
2018-11-06T06:59:58.252Z,9.30
2018-11-06T07:02:31.721Z,9.30
2018-11-06T07:05:04.951Z,9.30
2018-11-06T07:07:39.594Z,9.30
2018-11-06T07:10:15.285Z,9.30
2018-11-06T07:12:49.176Z,9.30
2018-11-06T07:15:23.995Z,9.30
2018-11-06T07:17:57.462Z,9.20
2018-11-06T07:20:31.096Z,9.20
2018-11-06T07:23:04.540Z,9.20
2018-11-06T07:25:38.038Z,9.20
2018-11-06T07:28:11.576Z,9.20
2018-11-06T07:30:45.016Z,9.20
2018-11-06T07:33:18.828Z,9.30
2018-11-06T07:35:53.665Z,9.30
2018-11-06T07:38:28.114Z,9.30
2018-11-06T07:41:02.237Z,9.30
2018-11-06T07:43:39.183Z,9.30
2018-11-06T07:46:16.180Z,9.30
2018-11-06T07:48:51.609Z,9.40
2018-11-06T07:51:26.272Z,9.40
2018-11-06T07:53:59.983Z,9.40
2018-11-06T07:56:32.981Z,9.30
2018-11-06T07:59:07.685Z,9.30
2018-11-06T08:01:41.002Z,9.30
2018-11-06T08:07:06.925Z,9.10
2018-11-06T08:09:41.179Z,9.10
2018-11-06T08:12:17.350Z,9.10
2018-11-06T08:14:50.959Z,9.10
2018-11-06T08:17:24.700Z,9.10
2018-11-06T08:19:58.222Z,9.10
2018-11-06T08:22:33.049Z,9.00
2018-11-06T08:25:06.878Z,9.00
2018-11-06T08:27:41.129Z,9.10
2018-11-06T08:30:15.217Z,9.10
2018-11-06T08:32:51.045Z,8.90
2018-11-06T08:38:04.103Z,8.80
2018-11-06T08:40:38.166Z,8.70
2018-11-06T08:43:12.172Z,8.70
2018-11-06T08:45:45.510Z,8.70
2018-11-06T08:48:19.955Z,8.70
2018-11-06T08:50:54.155Z,8.70
2018-11-06T08:53:27.602Z,8.80
2018-11-06T08:56:01.140Z,8.80
2018-11-06T08:58:35.349Z,8.80
2018-11-06T09:01:08.758Z,8.80
2018-11-06T09:03:43.290Z,8.80
2018-11-06T09:06:16.711Z,8.70
2018-11-06T09:08:50.140Z,8.80
2018-11-06T09:11:23.580Z,8.70
2018-11-06T09:13:57.492Z,8.70
2018-11-06T09:16:31.001Z,8.70
2018-11-06T09:19:05.308Z,8.70
2018-11-06T09:21:39.296Z,8.70
2018-11-06T09:24:13.310Z,8.70
2018-11-06T09:26:47.038Z,8.70
2018-11-06T09:29:21.750Z,8.80
2018-11-06T09:31:55.780Z,8.80
2018-11-06T09:34:29.682Z,8.80
2018-11-06T09:37:03.044Z,8.70
2018-11-06T09:39:37.122Z,8.70
2018-11-06T09:42:10.987Z,8.60
2018-11-06T09:44:44.484Z,8.50
2018-11-06T09:47:18.382Z,8.50
2018-11-06T09:49:54.286Z,8.40
2018-11-06T09:52:27.927Z,8.40
2018-11-06T09:55:01.191Z,8.30
2018-11-06T09:57:35.498Z,8.30
2018-11-06T10:00:11.579Z,8.20
2018-11-06T10:02:46.102Z,8.20
2018-11-06T10:05:19.850Z,8.10
2018-11-06T10:07:53.336Z,8.10
2018-11-06T10:10:28.077Z,8.00
2018-11-06T10:13:02.718Z,8.00
2018-11-06T10:15:38.411Z,8.00
2018-11-06T10:18:13.805Z,8.00
2018-11-06T10:20:47.742Z,8.10
2018-11-06T10:23:21.555Z,8.10
2018-11-06T10:25:59.909Z,8.10
2018-11-06T10:28:33.905Z,8.10
2018-11-06T10:31:07.514Z,8.20
2018-11-06T10:33:41.553Z,8.20
2018-11-06T10:36:15.625Z,8.20
2018-11-06T10:38:49.445Z,8.10
2018-11-06T10:41:22.880Z,8.10
2018-11-06T10:43:57.096Z,8.00
2018-11-06T10:46:30.445Z,8.00
2018-11-06T10:49:04.104Z,8.00
2018-11-06T10:51:37.795Z,8.00
2018-11-06T10:54:12.436Z,8.10
2018-11-06T10:56:46.030Z,8.10
2018-11-06T10:59:19.649Z,8.10
2018-11-06T11:01:57.243Z,8.10
2018-11-06T11:04:31.437Z,8.10
2018-11-06T11:07:05.249Z,8.10
2018-11-06T11:09:38.654Z,8.10
2018-11-06T11:12:12.005Z,8.10
2018-11-06T11:14:49.476Z,8.10
2018-11-06T11:17:23.534Z,8.20
2018-11-06T11:19:57.442Z,8.20
2018-11-06T11:22:31.916Z,8.20
2018-11-06T11:25:14.569Z,8.10
2018-11-06T11:27:48.612Z,8.10
2018-11-06T11:30:22.564Z,8.10
2018-11-06T11:32:56.594Z,8.10
2018-11-06T11:35:30.172Z,8.10
2018-11-06T11:38:04.262Z,8.10
2018-11-06T11:40:38.445Z,8.00
2018-11-06T11:43:14.213Z,8.10
2018-11-06T11:45:48.271Z,8.10
2018-11-06T11:48:21.665Z,8.10
2018-11-06T11:50:55.316Z,8.20
2018-11-06T11:53:28.807Z,8.20
2018-11-06T11:56:02.231Z,8.20
2018-11-06T11:58:35.906Z,8.20
2018-11-06T12:01:09.790Z,8.30
2018-11-06T12:03:43.192Z,8.30
2018-11-06T12:06:16.538Z,8.20
2018-11-06T12:08:50.225Z,8.20
2018-11-06T12:11:24.579Z,8.10
2018-11-06T12:13:57.930Z,8.10
2018-11-06T12:16:32.135Z,8.10
2018-11-06T12:19:06.371Z,8.10
2018-11-06T12:21:40.045Z,8.00
2018-11-06T12:24:16.007Z,8.00
2018-11-06T12:26:50.533Z,8.00
2018-11-06T12:29:24.415Z,8.00
2018-11-06T12:31:57.788Z,7.90
2018-11-06T12:34:31.093Z,7.90
2018-11-06T12:37:06.011Z,7.90
2018-11-06T12:39:39.541Z,7.90
2018-11-06T12:42:13.145Z,7.90
2018-11-06T12:44:47.713Z,7.80
2018-11-06T12:47:22.847Z,7.80
2018-11-06T12:49:57.760Z,7.80
2018-11-06T12:52:33.364Z,7.80
2018-11-06T12:55:07.053Z,7.90
2018-11-06T12:57:41.855Z,7.80
2018-11-06T13:00:18.483Z,7.80
2018-11-06T13:02:53.566Z,7.80
2018-11-06T13:05:27.239Z,7.80
2018-11-06T13:08:00.795Z,7.80
2018-11-06T13:10:35.075Z,7.70
2018-11-06T13:13:09.529Z,7.70
2018-11-06T13:15:42.895Z,7.70
2018-11-06T13:18:16.395Z,7.60
2018-11-06T13:20:49.866Z,7.60
2018-11-06T13:23:23.534Z,7.50
2018-11-06T13:25:57.438Z,7.50
2018-11-06T13:28:30.997Z,7.50
2018-11-06T13:31:04.130Z,7.40
2018-11-06T13:33:37.689Z,7.40
2018-11-06T13:36:11.799Z,7.40
2018-11-06T13:38:45.250Z,7.30
2018-11-06T13:41:19.581Z,7.20
2018-11-06T13:43:53.903Z,7.20
2018-11-06T13:46:28.282Z,7.20
2018-11-06T13:49:02.796Z,7.10
2018-11-06T13:51:37.110Z,7.20
2018-11-06T13:54:12.114Z,7.20
2018-11-06T13:56:45.988Z,7.20
2018-11-06T13:59:20.343Z,7.10
2018-11-06T14:01:54.149Z,7.10
2018-11-06T14:04:27.749Z,7.10
2018-11-06T14:07:02.251Z,7.00
2018-11-06T14:09:39.187Z,7.00
2018-11-06T14:12:13.610Z,6.90
2018-11-06T14:14:47.289Z,6.90
2018-11-06T14:17:20.878Z,6.80
2018-11-06T14:19:54.386Z,6.80
2018-11-06T14:22:27.664Z,6.80
2018-11-06T14:25:01.104Z,6.80
2018-11-06T14:27:35.337Z,6.70
2018-11-06T14:30:11.539Z,6.70
2018-11-06T14:32:47.334Z,6.70
2018-11-06T14:35:21.748Z,6.70
2018-11-06T14:37:55.568Z,6.60
2018-11-06T14:40:28.968Z,6.60
2018-11-06T14:43:04.031Z,6.70
2018-11-06T14:45:39.302Z,6.70
2018-11-06T14:48:14.613Z,6.70
2018-11-06T14:50:52.040Z,6.60
2018-11-06T14:53:26.862Z,6.60
2018-11-06T14:56:00.768Z,6.60
2018-11-06T14:58:35.994Z,6.50
2018-11-06T15:01:10.478Z,6.50
2018-11-06T15:03:45.089Z,6.50
2018-11-06T15:06:20.211Z,6.50
2018-11-06T15:08:53.891Z,6.50
2018-11-06T15:11:27.668Z,6.50
2018-11-06T15:14:02.606Z,6.50
2018-11-06T15:16:36.388Z,6.60
2018-11-06T15:19:10.046Z,6.60
2018-11-06T15:21:43.322Z,6.60
2018-11-06T15:24:16.620Z,6.60
2018-11-06T15:26:50.972Z,6.70
2018-11-06T15:29:24.903Z,6.80
2018-11-06T15:31:58.267Z,6.80
2018-11-06T15:34:32.256Z,6.80
2018-11-06T15:37:05.862Z,6.90
2018-11-06T15:39:39.683Z,7.00
2018-11-06T15:42:13.368Z,7.00
2018-11-06T15:44:48.511Z,7.00
2018-11-06T15:47:21.952Z,7.00
2018-11-06T15:49:55.690Z,6.90
2018-11-06T15:52:30.438Z,7.00
2018-11-06T15:55:04.905Z,7.10
2018-11-06T15:57:40.184Z,7.20
2018-11-06T16:00:18.368Z,7.30
2018-11-06T16:02:52.051Z,7.30
2018-11-06T16:05:26.706Z,7.40
2018-11-06T16:08:01.684Z,7.40
2018-11-06T16:10:37.466Z,7.40
2018-11-06T16:13:11.103Z,7.50
2018-11-06T16:15:44.523Z,7.50
2018-11-06T16:18:17.700Z,7.50
2018-11-06T16:20:51.839Z,7.50
2018-11-06T16:23:26.782Z,7.60
2018-11-06T16:26:02.194Z,7.60
2018-11-06T16:28:36.023Z,7.60
2018-11-06T16:31:10.242Z,7.70
2018-11-06T16:33:45.759Z,7.80
2018-11-06T16:36:20.818Z,7.90
2018-11-06T16:38:54.652Z,8.10
2018-11-06T16:41:29.003Z,8.30
2018-11-06T16:44:03.140Z,8.40
2018-11-06T16:46:36.915Z,8.50
2018-11-06T16:49:10.741Z,8.60
2018-11-06T16:51:44.907Z,8.70
2018-11-06T16:54:18.080Z,8.70
2018-11-06T16:56:53.439Z,8.70
2018-11-06T16:59:29.398Z,8.70
2018-11-06T17:02:02.832Z,8.80
2018-11-06T17:04:35.884Z,8.90
2018-11-06T17:07:09.705Z,9.00
2018-11-06T17:09:42.726Z,9.10
2018-11-06T17:12:16.795Z,9.30
2018-11-06T17:14:49.808Z,9.40
2018-11-06T17:17:23.200Z,9.40
2018-11-06T17:20:01.707Z,9.50
2018-11-06T17:22:35.021Z,9.50
2018-11-06T17:25:09.253Z,9.70
2018-11-06T17:27:43.935Z,9.70
2018-11-06T17:30:19.011Z,9.80
2018-11-06T17:32:53.293Z,9.80
2018-11-06T17:35:26.718Z,9.90
2018-11-06T17:38:00.068Z,9.90
2018-11-06T17:40:34.285Z,9.80
2018-11-06T17:43:07.607Z,9.70
2018-11-06T17:45:40.766Z,9.70
2018-11-06T17:48:14.337Z,9.70
2018-11-06T17:50:47.723Z,9.70
2018-11-06T17:53:21.223Z,9.70
2018-11-06T17:55:54.957Z,9.70
2018-11-06T17:58:29.636Z,9.70
2018-11-06T18:01:03.899Z,9.70
2018-11-06T18:03:37.601Z,9.80
2018-11-06T18:06:11.047Z,9.90
2018-11-06T18:08:45.978Z,9.90
2018-11-06T18:11:19.524Z,10.00
2018-11-06T18:13:52.916Z,10.10
2018-11-06T18:16:27.671Z,10.20
2018-11-06T18:19:01.965Z,10.30
2018-11-06T18:21:35.244Z,10.30
2018-11-06T18:24:08.918Z,10.40
2018-11-06T18:26:42.996Z,10.40
2018-11-06T18:29:16.902Z,10.60
2018-11-06T18:31:51.394Z,10.50
2018-11-06T18:34:25.192Z,10.60
2018-11-06T18:36:58.385Z,10.70
2018-11-06T18:39:32.246Z,10.70
2018-11-06T18:42:05.853Z,10.80
2018-11-06T18:44:39.400Z,10.90
2018-11-06T18:47:12.627Z,10.80
2018-11-06T18:49:46.531Z,10.80
2018-11-06T18:52:20.239Z,10.90
2018-11-06T18:54:54.608Z,11.00
2018-11-06T18:57:28.548Z,11.10
2018-11-06T19:00:02.128Z,11.20
2018-11-06T19:02:35.947Z,11.40
2018-11-06T19:05:10.575Z,11.50
2018-11-06T19:07:44.876Z,11.20
2018-11-06T19:10:19.717Z,11.10
2018-11-06T19:12:53.165Z,11.30
2018-11-06T19:15:27.200Z,11.30
2018-11-06T19:18:01.877Z,11.20
2018-11-06T19:20:35.509Z,11.00
2018-11-06T19:23:09.242Z,11.00
2018-11-06T19:25:42.967Z,11.10
2018-11-06T19:28:16.508Z,11.10
2018-11-06T19:30:50.647Z,11.20
2018-11-06T19:33:26.003Z,11.30
2018-11-06T19:36:00.493Z,11.40
2018-11-06T19:38:34.106Z,11.50
2018-11-06T19:41:08.207Z,11.60
2018-11-06T19:43:42.988Z,11.60
2018-11-06T19:46:20.402Z,11.50
2018-11-06T19:48:55.096Z,11.60
2018-11-06T19:51:28.358Z,11.50
2018-11-06T19:54:01.644Z,11.50
2018-11-06T19:56:36.443Z,11.40
2018-11-06T19:59:10.249Z,11.50
2018-11-06T20:01:43.889Z,11.50
2018-11-06T20:04:17.099Z,11.50
2018-11-06T20:06:50.975Z,11.40
2018-11-06T20:09:24.414Z,11.40
2018-11-06T20:11:58.041Z,11.50
2018-11-06T20:14:31.430Z,11.80
2018-11-06T20:17:04.992Z,11.70
2018-11-06T20:19:38.345Z,11.70
2018-11-06T20:22:13.903Z,11.70
2018-11-06T20:24:47.659Z,11.70
2018-11-06T20:27:21.016Z,11.70
2018-11-06T20:29:56.461Z,11.80
2018-11-06T20:32:31.565Z,11.80
2018-11-06T20:35:05.121Z,11.60
2018-11-06T20:37:39.899Z,11.50
2018-11-06T20:40:18.847Z,11.40
2018-11-06T20:42:56.039Z,11.50
2018-11-06T20:45:29.700Z,11.50
2018-11-06T20:48:03.948Z,11.60
2018-11-06T20:50:37.435Z,11.50
2018-11-06T20:53:12.500Z,11.50
2018-11-06T20:55:47.291Z,11.40
2018-11-06T20:58:20.790Z,11.40
2018-11-06T21:00:54.981Z,11.40
2018-11-06T21:03:28.371Z,11.20
2018-11-06T21:06:02.706Z,11.20
2018-11-06T21:08:38.315Z,11.40
2018-11-06T21:11:11.901Z,11.60
2018-11-06T21:13:51.620Z,12.00
2018-11-06T21:16:25.858Z,11.90
2018-11-06T21:19:04.734Z,12.00
2018-11-06T21:21:43.619Z,12.10
2018-11-06T21:24:17.385Z,12.10
2018-11-06T21:26:50.791Z,12.00
2018-11-06T21:29:25.383Z,12.30
2018-11-06T21:31:58.041Z,12.30
2018-11-06T21:34:30.859Z,12.50
2018-11-06T21:37:05.782Z,12.60
2018-11-06T21:39:39.491Z,12.60
2018-11-06T21:42:17.919Z,12.60
2018-11-06T21:44:52.374Z,12.70
2018-11-06T21:47:28.069Z,12.80
2018-11-06T21:50:04.613Z,12.60
2018-11-06T21:52:44.157Z,12.40
2018-11-06T21:55:21.878Z,12.50
2018-11-06T21:57:55.611Z,12.50
2018-11-06T22:00:29.022Z,12.30
2018-11-06T22:03:02.884Z,12.20
2018-11-06T22:05:38.572Z,12.10
2018-11-06T22:08:23.520Z,12.20
2018-11-06T22:11:06.332Z,12.40
2018-11-06T22:13:40.135Z,12.50
2018-11-06T22:16:15.044Z,12.60
2018-11-06T22:18:48.500Z,12.60
2018-11-06T22:21:21.598Z,12.50
2018-11-06T22:23:54.733Z,12.60
2018-11-06T22:26:28.546Z,12.80
2018-11-06T22:29:09.711Z,12.80
2018-11-06T22:31:47.693Z,13.00
2018-11-06T22:34:21.052Z,13.20
2018-11-06T22:36:53.997Z,13.50
2018-11-06T22:39:26.957Z,13.50
2018-11-06T22:42:00.771Z,13.20
2018-11-06T22:44:33.755Z,13.30
2018-11-06T22:47:07.607Z,13.20
2018-11-06T22:49:44.408Z,13.20
2018-11-06T22:52:17.389Z,12.80
2018-11-06T22:54:50.285Z,12.90
2018-11-06T22:57:23.251Z,13.00
2018-11-06T22:59:56.445Z,13.00
2018-11-06T23:02:30.901Z,12.80
2018-11-06T23:05:04.969Z,12.60
2018-11-06T23:07:42.554Z,12.40
2018-11-06T23:10:16.548Z,12.30
2018-11-06T23:12:50.620Z,12.10
2018-11-06T23:15:24.787Z,12.10
2018-11-06T23:17:58.450Z,12.10
2018-11-06T23:20:32.092Z,12.00
2018-11-06T23:23:05.540Z,12.00
2018-11-06T23:25:38.301Z,11.90
2018-11-06T23:28:13.723Z,11.90
2018-11-06T23:30:47.558Z,11.80
2018-11-06T23:33:21.350Z,11.70
2018-11-06T23:35:54.785Z,11.60
2018-11-06T23:38:28.977Z,11.60
2018-11-06T23:41:02.673Z,11.50
2018-11-06T23:43:35.453Z,11.50
2018-11-06T23:46:10.389Z,11.50
2018-11-06T23:48:44.726Z,11.50
2018-11-06T23:51:22.311Z,11.50
2018-11-06T23:53:55.784Z,11.40
2018-11-06T23:56:31.415Z,11.40
2018-11-06T23:59:08.142Z,11.40
